createdAt,value
2022-08-24T00:01:28.175Z,76.02
2022-08-24T00:03:59.793Z,74.81
2022-08-24T00:06:28.611Z,77.66
2022-08-24T00:08:57.611Z,75.40
2022-08-24T00:11:25.640Z,75.33
2022-08-24T00:13:53.378Z,75.70
2022-08-24T00:16:22.278Z,76.20
2022-08-24T00:18:49.787Z,75.09
2022-08-24T00:21:17.388Z,74.89
2022-08-24T00:23:46.546Z,76.39
2022-08-24T00:26:14.238Z,76.52
2022-08-24T00:28:41.855Z,76.39
2022-08-24T00:31:09.538Z,76.20
2022-08-24T00:33:37.370Z,76.18
2022-08-24T00:36:05.466Z,78.29
2022-08-24T00:38:35.670Z,76.15
2022-08-24T00:41:04.553Z,77.25
2022-08-24T00:43:33.084Z,77.44
2022-08-24T00:46:09.838Z,76.77
2022-08-24T00:48:40.642Z,77.29
2022-08-24T00:51:39.893Z,77.34
2022-08-24T00:54:12.428Z,76.50
2022-08-24T00:56:46.509Z,78.82
2022-08-24T00:59:19.341Z,79.13
2022-08-24T01:01:48.815Z,79.53
2022-08-24T01:04:21.723Z,78.27
2022-08-24T01:06:49.977Z,78.56
2022-08-24T01:09:17.410Z,77.37
2022-08-24T01:11:47.159Z,79.92
2022-08-24T01:14:14.845Z,78.00
2022-08-24T01:17:00.772Z,78.77
2022-08-24T01:19:36.497Z,76.98
2022-08-24T01:22:34.475Z,81.02
2022-08-24T01:25:02.233Z,81.54
2022-08-24T01:27:29.945Z,78.94
2022-08-24T01:30:00.250Z,80.07
2022-08-24T01:32:28.068Z,81.28
2022-08-24T01:34:56.572Z,80.94
2022-08-24T01:37:24.412Z,80.26
2022-08-24T01:39:54.728Z,78.36
2022-08-24T01:42:22.392Z,78.71
2022-08-24T01:44:49.763Z,79.61
2022-08-24T01:47:17.530Z,78.26
2022-08-24T01:49:47.997Z,78.86
2022-08-24T01:52:18.826Z,77.34
2022-08-24T01:54:46.991Z,80.39
2022-08-24T01:57:17.283Z,79.71
2022-08-24T01:59:44.833Z,79.32
2022-08-24T02:02:18.885Z,78.00
2022-08-24T02:04:46.594Z,80.80
2022-08-24T02:07:14.075Z,77.62
2022-08-24T02:09:41.804Z,78.50
2022-08-24T02:12:09.873Z,77.22
2022-08-24T02:14:37.690Z,76.96
2022-08-24T02:17:06.637Z,77.75
2022-08-24T02:19:35.281Z,76.41
2022-08-24T02:22:37.336Z,76.28
2022-08-24T02:25:05.546Z,78.10
2022-08-24T02:27:33.386Z,77.02
2022-08-24T02:30:00.932Z,76.58
2022-08-24T02:32:28.676Z,77.68
2022-08-24T02:34:56.075Z,78.25
2022-08-24T02:37:23.670Z,76.76
2022-08-24T02:39:52.466Z,77.69
2022-08-24T02:42:20.198Z,78.97
2022-08-24T02:44:48.149Z,79.40
2022-08-24T02:47:17.653Z,78.92
2022-08-24T02:49:45.144Z,78.90
2022-08-24T02:52:12.923Z,77.28
2022-08-24T02:54:42.029Z,77.04
2022-08-24T02:57:09.555Z,77.46
2022-08-24T02:59:37.056Z,77.43
2022-08-24T03:02:05.671Z,77.24
2022-08-24T03:04:33.280Z,80.26
2022-08-24T03:07:00.937Z,80.48
2022-08-24T03:09:28.847Z,77.48
2022-08-24T03:11:57.981Z,78.10
2022-08-24T03:14:25.566Z,78.22
2022-08-24T03:16:54.561Z,78.12
2022-08-24T03:19:22.810Z,79.94
2022-08-24T03:21:51.297Z,79.57
2022-08-24T03:24:18.964Z,80.36
2022-08-24T03:26:46.432Z,80.87
2022-08-24T03:29:15.808Z,79.79
2022-08-24T03:31:44.480Z,82.09
2022-08-24T03:34:14.677Z,81.06
2022-08-24T03:36:46.609Z,82.23
2022-08-24T03:39:15.778Z,81.71
2022-08-24T03:41:43.385Z,80.55
2022-08-24T03:44:10.845Z,81.08
2022-08-24T03:46:38.858Z,79.99
2022-08-24T03:49:08.693Z,78.99
2022-08-24T03:51:37.391Z,78.61
2022-08-24T03:54:07.640Z,78.66
2022-08-24T03:56:35.383Z,79.55
2022-08-24T03:59:03.228Z,79.60
2022-08-24T04:01:31.255Z,80.16
2022-08-24T04:03:59.843Z,81.38
2022-08-24T04:06:27.950Z,80.38
2022-08-24T04:08:56.031Z,80.90
2022-08-24T04:11:26.654Z,80.41
2022-08-24T04:13:59.339Z,78.84
2022-08-24T04:16:29.650Z,80.46
2022-08-24T04:18:59.188Z,78.99
2022-08-24T04:21:32.880Z,78.33
2022-08-24T04:24:04.854Z,79.51
2022-08-24T04:26:45.480Z,78.84
2022-08-24T04:29:15.862Z,82.69
2022-08-24T04:31:44.056Z,80.75
2022-08-24T04:34:12.544Z,82.58
2022-08-24T04:36:42.435Z,81.07
2022-08-24T04:39:10.128Z,81.27
2022-08-24T04:41:38.021Z,80.68
2022-08-24T04:44:06.620Z,82.03
2022-08-24T04:46:35.340Z,81.79
2022-08-24T04:49:02.770Z,81.21
2022-08-24T04:51:31.686Z,80.11
2022-08-24T04:54:05.337Z,79.60
2022-08-24T04:56:32.754Z,79.02
2022-08-24T04:59:00.790Z,81.42
2022-08-24T05:01:29.823Z,81.46
2022-08-24T05:03:57.379Z,78.27
2022-08-24T05:06:27.626Z,77.88
2022-08-24T05:08:57.336Z,78.56
2022-08-24T05:11:26.482Z,77.84
2022-08-24T05:13:56.006Z,78.20
2022-08-24T05:16:25.664Z,75.98
2022-08-24T05:18:54.775Z,76.31
2022-08-24T05:21:23.745Z,75.58
2022-08-24T05:23:53.067Z,74.90
2022-08-24T05:26:24.329Z,74.03
2022-08-24T05:28:57.096Z,72.66
2022-08-24T05:31:28.043Z,72.85
2022-08-24T05:33:56.129Z,72.27
2022-08-24T05:36:29.529Z,72.60
2022-08-24T05:38:58.817Z,70.92
2022-08-24T05:41:26.704Z,70.83
2022-08-24T05:43:54.817Z,67.44
2022-08-24T05:46:22.679Z,68.71
2022-08-24T05:48:52.830Z,69.26
2022-08-24T05:51:22.102Z,65.90
2022-08-24T05:53:51.241Z,67.20
2022-08-24T05:56:19.691Z,66.67
2022-08-24T05:58:47.463Z,68.60
2022-08-24T06:01:24.560Z,68.85
2022-08-24T06:03:53.591Z,66.82
2022-08-24T06:06:22.530Z,63.23
2022-08-24T06:08:51.974Z,64.97
2022-08-24T06:11:39.590Z,62.24
2022-08-24T06:14:12.067Z,64.25
2022-08-24T06:16:45.222Z,63.39
2022-08-24T06:19:14.515Z,63.47
2022-08-24T06:21:43.509Z,61.53
2022-08-24T06:24:11.642Z,62.75
2022-08-24T06:26:57.496Z,65.07
2022-08-24T06:29:25.189Z,65.88
2022-08-24T06:31:54.583Z,64.30
2022-08-24T06:34:24.251Z,65.11
2022-08-24T06:36:52.820Z,63.87
2022-08-24T06:39:21.551Z,64.36
2022-08-24T06:41:50.144Z,62.76
2022-08-24T06:44:18.848Z,61.57
2022-08-24T06:46:46.928Z,63.45
2022-08-24T06:49:14.453Z,61.38
2022-08-24T06:51:42.118Z,63.90
2022-08-24T06:54:10.446Z,63.34
2022-08-24T06:56:38.630Z,64.03
2022-08-24T06:59:06.452Z,62.45
2022-08-24T07:01:34.082Z,62.13
2022-08-24T07:04:01.682Z,61.40
2022-08-24T07:06:36.822Z,60.27
2022-08-24T07:09:05.337Z,59.87
2022-08-24T07:11:35.139Z,62.04
2022-08-24T07:14:02.710Z,62.02
2022-08-24T07:16:31.040Z,60.27
2022-08-24T07:18:58.979Z,61.24
2022-08-24T07:21:28.335Z,61.41
2022-08-24T07:23:58.086Z,60.80
2022-08-24T07:26:28.077Z,62.20
2022-08-24T07:29:05.407Z,62.65
2022-08-24T07:31:35.482Z,62.92
2022-08-24T07:34:06.730Z,62.22
2022-08-24T07:36:35.172Z,60.11
2022-08-24T07:39:04.011Z,60.63
2022-08-24T07:42:09.069Z,60.06
2022-08-24T07:44:19.779Z,59.43
2022-08-24T07:46:47.227Z,58.39
2022-08-24T07:49:31.637Z,60.84
2022-08-24T07:52:02.078Z,59.03
2022-08-24T07:54:29.748Z,60.45
2022-08-24T07:56:59.913Z,57.93
2022-08-24T07:59:28.084Z,57.23
2022-08-24T08:01:55.992Z,58.73
2022-08-24T08:04:25.272Z,59.58
2022-08-24T08:06:53.787Z,60.17
2022-08-24T08:09:21.471Z,57.12
2022-08-24T08:11:49.877Z,59.28
2022-08-24T08:14:17.294Z,60.51
2022-08-24T08:16:45.867Z,61.65
2022-08-24T08:19:13.877Z,60.75
2022-08-24T08:22:05.289Z,62.51
2022-08-24T08:24:33.886Z,60.02
2022-08-24T08:27:01.306Z,57.95
2022-08-24T08:29:32.171Z,58.71
2022-08-24T08:32:01.195Z,60.15
2022-08-24T08:34:30.273Z,60.48
2022-08-24T08:36:58.741Z,58.75
2022-08-24T08:39:27.535Z,62.11
2022-08-24T08:42:02.389Z,62.00
2022-08-24T08:44:43.396Z,61.03
2022-08-24T08:47:31.213Z,61.25
2022-08-24T08:50:08.191Z,60.80
2022-08-24T08:52:57.939Z,59.25
2022-08-24T08:55:37.303Z,60.23
2022-08-24T08:58:17.477Z,61.26
2022-08-24T09:00:48.946Z,59.36
2022-08-24T09:03:28.748Z,59.10
2022-08-24T09:06:22.823Z,58.59
2022-08-24T09:09:05.502Z,57.77
2022-08-24T09:11:48.379Z,57.92
2022-08-24T09:14:47.700Z,55.82
2022-08-24T09:17:40.296Z,56.44
2022-08-24T09:20:26.095Z,56.07
2022-08-24T09:23:29.624Z,56.97
2022-08-24T09:26:34.338Z,55.12
2022-08-24T09:29:41.340Z,55.17
2022-08-24T09:32:28.499Z,54.11
2022-08-24T09:35:01.154Z,55.15
2022-08-24T09:37:33.542Z,51.81
2022-08-24T09:40:22.977Z,51.89
2022-08-24T09:43:22.357Z,52.20
2022-08-24T09:46:15.054Z,52.50
2022-08-24T09:49:20.195Z,51.79
2022-08-24T09:52:18.650Z,50.63
2022-08-24T09:54:55.242Z,51.29
2022-08-24T09:58:00.038Z,52.32
2022-08-24T10:00:39.680Z,50.98
2022-08-24T10:03:37.797Z,52.63
2022-08-24T10:06:18.496Z,51.16
2022-08-24T10:09:01.207Z,51.87
2022-08-24T10:11:49.839Z,52.03
2022-08-24T10:14:50.403Z,51.42
2022-08-24T10:17:28.659Z,51.16
2022-08-24T10:20:15.018Z,50.67
2022-08-24T10:23:25.903Z,51.21
2022-08-24T10:26:02.871Z,50.28
2022-08-24T10:29:08.625Z,49.24
2022-08-24T10:31:47.813Z,50.43
2022-08-24T10:34:20.960Z,49.85
2022-08-24T10:36:57.630Z,50.88
2022-08-24T10:39:45.803Z,51.06
2022-08-24T10:42:47.648Z,50.33
2022-08-24T10:45:17.585Z,50.66
2022-08-24T10:48:05.485Z,50.28
2022-08-24T10:50:42.213Z,50.21
2022-08-24T10:53:20.447Z,50.64
2022-08-24T10:55:57.578Z,51.65
2022-08-24T10:58:49.875Z,50.63
2022-08-24T11:01:22.808Z,52.24
2022-08-24T11:04:14.045Z,52.13
2022-08-24T11:06:45.198Z,53.61
2022-08-24T11:09:19.403Z,52.56
2022-08-24T11:11:50.099Z,52.97
2022-08-24T11:14:26.825Z,53.74
2022-08-24T11:17:14.296Z,51.56
2022-08-24T11:19:42.788Z,52.65
2022-08-24T11:22:37.041Z,54.55
2022-08-24T11:25:28.350Z,55.23
2022-08-24T11:28:25.733Z,60.23
2022-08-24T11:30:53.148Z,62.17
2022-08-24T11:33:30.398Z,62.13
2022-08-24T11:35:58.036Z,62.35
2022-08-24T11:38:31.645Z,62.13
2022-08-24T11:41:26.674Z,63.08
2022-08-24T11:44:37.378Z,66.18
2022-08-24T11:47:10.773Z,68.58
2022-08-24T11:50:17.718Z,69.73
2022-08-24T11:52:59.666Z,67.50
2022-08-24T11:55:46.763Z,63.84
2022-08-24T11:58:23.594Z,66.35
2022-08-24T12:01:36.423Z,67.20
2022-08-24T12:04:36.591Z,67.32
2022-08-24T12:07:29.098Z,73.66
2022-08-24T12:10:10.903Z,74.97
2022-08-24T12:13:29.594Z,70.27
2022-08-24T12:16:09.718Z,68.11
2022-08-24T12:18:55.710Z,68.65
2022-08-24T12:21:27.782Z,66.98
2022-08-24T12:24:03.346Z,65.46
2022-08-24T12:26:43.429Z,70.05
2022-08-24T12:29:26.027Z,69.95
2022-08-24T12:32:14.305Z,69.62
2022-08-24T12:34:54.198Z,70.71
2022-08-24T12:37:43.723Z,74.85
2022-08-24T12:40:24.511Z,73.77
2022-08-24T12:42:56.084Z,74.64
2022-08-24T12:45:24.212Z,76.32
2022-08-24T12:48:11.725Z,77.55
2022-08-24T12:50:46.473Z,74.69
2022-08-24T12:53:26.441Z,74.79
2022-08-24T12:56:07.470Z,73.23
2022-08-24T12:58:54.645Z,72.47
2022-08-24T13:01:29.244Z,73.34
2022-08-24T13:04:16.159Z,73.10
2022-08-24T13:06:49.343Z,73.27
2022-08-24T13:09:29.055Z,76.15
2022-08-24T13:12:00.825Z,78.07
2022-08-24T13:14:30.051Z,77.84
2022-08-24T13:16:57.360Z,74.54
2022-08-24T13:19:31.193Z,77.01
2022-08-24T13:22:15.844Z,76.39
2022-08-24T13:24:45.516Z,75.87
2022-08-24T13:27:13.107Z,76.61
2022-08-24T13:29:43.112Z,74.09
2022-08-24T13:32:18.140Z,73.65
2022-08-24T13:34:47.811Z,72.90
2022-08-24T13:37:22.650Z,74.69
2022-08-24T13:40:02.883Z,74.62
2022-08-24T13:42:51.713Z,76.39
2022-08-24T13:45:34.668Z,75.82
2022-08-24T13:48:16.251Z,75.50
2022-08-24T13:50:50.605Z,74.39
2022-08-24T13:53:41.497Z,74.79
2022-08-24T13:56:13.001Z,75.92
2022-08-24T13:59:18.192Z,76.39
2022-08-24T14:01:47.541Z,75.71
2022-08-24T14:04:36.445Z,74.92
2022-08-24T14:07:09.334Z,74.99
2022-08-24T14:10:26.284Z,74.05
2022-08-24T14:13:24.505Z,75.11
2022-08-24T14:16:20.893Z,75.41
2022-08-24T14:19:25.843Z,72.88
2022-08-24T14:22:06.041Z,74.90
2022-08-24T14:25:22.786Z,76.60
2022-08-24T14:28:11.825Z,76.99
2022-08-24T14:30:42.755Z,73.87
2022-08-24T14:33:28.765Z,73.63
2022-08-24T14:36:28.674Z,73.29
2022-08-24T14:39:06.236Z,73.35
2022-08-24T14:41:49.438Z,73.78
2022-08-24T14:44:46.238Z,74.75
2022-08-24T14:47:19.782Z,74.31
2022-08-24T14:50:12.659Z,74.96
2022-08-24T14:53:11.182Z,74.83
2022-08-24T14:55:45.582Z,74.40
2022-08-24T14:58:29.301Z,73.54
2022-08-24T15:01:03.456Z,74.09
2022-08-24T15:03:47.852Z,74.42
2022-08-24T15:06:34.281Z,74.30
2022-08-24T15:09:28.021Z,73.92
2022-08-24T15:12:14.486Z,75.03
2022-08-24T15:14:48.001Z,74.03
2022-08-24T15:17:28.225Z,74.21
2022-08-24T15:20:04.470Z,74.65
2022-08-24T15:23:05.879Z,75.19
2022-08-24T15:25:42.578Z,75.97
2022-08-24T15:28:24.055Z,76.65
2022-08-24T15:30:56.845Z,76.38
2022-08-24T15:33:25.195Z,75.41
2022-08-24T15:36:14.306Z,77.71
2022-08-24T15:38:42.971Z,76.81
2022-08-24T15:41:18.036Z,76.57
2022-08-24T15:43:51.511Z,79.24
2022-08-24T15:46:21.024Z,79.16
2022-08-24T15:48:50.642Z,80.09
2022-08-24T15:51:33.382Z,78.90
2022-08-24T15:54:15.229Z,79.10
2022-08-24T15:56:46.763Z,77.53
2022-08-24T15:59:28.374Z,76.71
2022-08-24T16:02:17.198Z,78.30
2022-08-24T16:04:48.686Z,79.73
2022-08-24T16:07:23.576Z,78.00
2022-08-24T16:10:07.560Z,77.48
2022-08-24T16:12:35.080Z,77.30
2022-08-24T16:15:11.407Z,75.96
2022-08-24T16:17:51.290Z,74.69
2022-08-24T16:20:25.193Z,75.69
2022-08-24T16:23:00.696Z,75.43
2022-08-24T16:28:23.713Z,75.20
2022-08-24T16:30:54.934Z,76.48
2022-08-24T16:33:31.167Z,75.77
2022-08-24T16:36:11.433Z,75.42
2022-08-24T16:38:46.160Z,74.62
2022-08-24T16:41:17.211Z,75.92
2022-08-24T16:43:45.917Z,74.76
2022-08-24T16:46:17.294Z,74.32
2022-08-24T16:48:44.711Z,73.67
2022-08-24T16:51:12.102Z,73.77
2022-08-24T16:53:42.821Z,73.73
2022-08-24T16:56:12.588Z,73.67
2022-08-24T16:58:45.425Z,74.23
2022-08-24T17:01:14.094Z,73.72
2022-08-24T17:03:41.607Z,71.75
2022-08-24T17:06:12.400Z,71.70
2022-08-24T17:08:40.086Z,72.11
2022-08-24T17:11:07.998Z,71.99
2022-08-24T17:13:51.158Z,71.79
2022-08-24T17:16:20.622Z,72.17
2022-08-24T17:18:48.465Z,71.49
2022-08-24T17:21:16.005Z,72.05
2022-08-24T17:23:44.893Z,72.70
2022-08-24T17:26:20.374Z,73.10
2022-08-24T17:28:51.591Z,72.37
2022-08-24T17:31:19.380Z,71.78
2022-08-24T17:33:46.821Z,72.25
2022-08-24T17:36:15.700Z,73.21
2022-08-24T17:38:48.526Z,74.76
2022-08-24T17:41:19.069Z,75.38
2022-08-24T17:43:46.717Z,75.37
2022-08-24T17:46:14.652Z,74.40
2022-08-24T17:48:46.402Z,72.99
2022-08-24T17:51:14.671Z,73.04
2022-08-24T17:53:42.299Z,73.37
2022-08-24T17:56:12.751Z,73.96
2022-08-24T17:59:00.310Z,74.04
2022-08-24T18:01:28.457Z,73.46
2022-08-24T18:03:56.195Z,73.49
2022-08-24T18:06:24.851Z,73.01
2022-08-24T18:08:52.802Z,74.05
2022-08-24T18:11:25.274Z,74.94
2022-08-24T18:13:54.385Z,74.41
2022-08-24T18:16:24.518Z,73.78
2022-08-24T18:18:52.522Z,74.90
2022-08-24T18:21:20.386Z,73.02
2022-08-24T18:23:49.386Z,74.68
2022-08-24T18:26:21.888Z,74.75
2022-08-24T18:28:54.450Z,74.22
2022-08-24T18:31:23.918Z,75.40
2022-08-24T18:33:51.524Z,74.81
2022-08-24T18:36:19.169Z,74.57
2022-08-24T18:38:46.555Z,74.76
2022-08-24T18:41:14.825Z,75.61
2022-08-24T18:43:42.512Z,74.97
2022-08-24T18:46:09.964Z,74.67
2022-08-24T18:48:37.511Z,75.65
2022-08-24T18:51:05.421Z,76.04
2022-08-24T18:53:35.559Z,74.74
2022-08-24T18:56:09.302Z,74.16
2022-08-24T18:58:38.253Z,73.74
2022-08-24T19:01:06.487Z,73.97
2022-08-24T19:03:34.664Z,74.56
2022-08-24T19:06:02.686Z,74.23
2022-08-24T19:08:30.197Z,73.87
2022-08-24T19:10:57.802Z,75.72
2022-08-24T19:13:25.841Z,75.18
2022-08-24T19:15:53.665Z,73.70
2022-08-24T19:18:22.026Z,74.34
2022-08-24T19:20:53.289Z,74.72
2022-08-24T19:23:24.111Z,74.41
2022-08-24T19:25:52.517Z,74.43
2022-08-24T19:28:20.822Z,73.44
2022-08-24T19:30:49.314Z,71.96
2022-08-24T19:33:23.434Z,72.57
2022-08-24T19:35:52.382Z,72.39
2022-08-24T19:38:25.525Z,71.29
2022-08-24T19:40:55.611Z,73.25
2022-08-24T19:43:26.268Z,74.12
2022-08-24T19:46:08.631Z,72.47
2022-08-24T19:48:41.826Z,72.52
2022-08-24T19:51:10.387Z,73.79
2022-08-24T19:53:39.523Z,72.98
2022-08-24T19:56:07.781Z,73.42
2022-08-24T19:58:47.473Z,71.96
2022-08-24T20:01:20.424Z,74.15
2022-08-24T20:03:48.940Z,73.89
2022-08-24T20:06:18.202Z,73.48
2022-08-24T20:08:48.436Z,73.38
2022-08-24T20:11:17.195Z,73.61
2022-08-24T20:13:45.038Z,72.12
2022-08-24T20:16:16.033Z,71.83
2022-08-24T20:18:44.164Z,72.63
2022-08-24T20:21:11.572Z,72.11
2022-08-24T20:23:39.007Z,73.07
2022-08-24T20:26:07.417Z,73.65
2022-08-24T20:28:40.154Z,74.26
2022-08-24T20:31:09.461Z,73.56
2022-08-24T20:33:36.896Z,73.03
2022-08-24T20:36:05.466Z,71.61
2022-08-24T20:38:34.229Z,71.65
2022-08-24T20:41:01.860Z,72.47
2022-08-24T20:43:29.362Z,72.49
2022-08-24T20:45:57.068Z,72.40
2022-08-24T20:48:30.309Z,73.36
2022-08-24T20:50:58.692Z,72.61
2022-08-24T20:53:26.913Z,72.89
2022-08-24T20:55:56.721Z,73.82
2022-08-24T20:58:24.434Z,74.21
2022-08-24T21:00:52.055Z,73.51
2022-08-24T21:03:19.920Z,73.27
2022-08-24T21:05:48.689Z,72.94
2022-08-24T21:08:16.118Z,74.17
2022-08-24T21:10:44.699Z,73.04
2022-08-24T21:13:12.726Z,72.82
2022-08-24T21:15:41.437Z,73.08
2022-08-24T21:18:10.820Z,73.20
2022-08-24T21:20:39.126Z,73.00
2022-08-24T21:23:12.034Z,72.56
2022-08-24T21:25:40.019Z,72.53
2022-08-24T21:28:07.541Z,72.88
2022-08-24T21:30:35.720Z,72.97
2022-08-24T21:33:24.598Z,72.08
2022-08-24T21:35:53.936Z,71.90
2022-08-24T21:38:23.510Z,72.67
2022-08-24T21:40:53.038Z,73.46
2022-08-24T21:43:21.638Z,72.62
2022-08-24T21:45:52.549Z,73.07
2022-08-24T21:48:20.563Z,73.26
2022-08-24T21:50:48.779Z,72.99
2022-08-24T21:53:16.935Z,73.78
2022-08-24T21:55:44.383Z,72.99
2022-08-24T21:58:12.230Z,72.67
2022-08-24T22:00:39.960Z,72.47
2022-08-24T22:03:08.728Z,74.09
2022-08-24T22:05:36.228Z,74.61
2022-08-24T22:08:03.920Z,74.58
2022-08-24T22:10:31.772Z,75.15
2022-08-24T22:13:03.829Z,74.17
2022-08-24T22:15:33.215Z,72.69
2022-08-24T22:18:01.390Z,73.28
2022-08-24T22:20:28.786Z,72.62
2022-08-24T22:22:58.468Z,72.66
2022-08-24T22:25:25.987Z,73.81
2022-08-24T22:27:53.343Z,73.87
2022-08-24T22:30:21.024Z,73.18
2022-08-24T22:32:48.385Z,73.79
2022-08-24T22:35:15.966Z,73.48
2022-08-24T22:37:43.956Z,74.48
2022-08-24T22:40:12.591Z,74.37
2022-08-24T22:42:40.541Z,74.80
2022-08-24T22:45:09.914Z,74.55
2022-08-24T22:47:38.226Z,74.29
2022-08-24T22:50:06.169Z,74.59
2022-08-24T22:52:34.221Z,74.39
2022-08-24T22:55:01.783Z,74.89
2022-08-24T22:57:29.200Z,74.30
2022-08-24T22:59:58.005Z,75.30
2022-08-24T23:02:25.488Z,74.95
2022-08-24T23:04:53.263Z,74.43
2022-08-24T23:07:21.123Z,73.61
2022-08-24T23:09:49.067Z,73.63
2022-08-24T23:12:19.832Z,74.45
2022-08-24T23:14:50.316Z,75.45
2022-08-24T23:17:18.358Z,75.08
2022-08-24T23:20:01.290Z,75.56
2022-08-24T23:22:34.743Z,75.32
2022-08-24T23:25:02.564Z,74.84
2022-08-24T23:27:32.629Z,73.33
2022-08-24T23:30:07.228Z,73.30
2022-08-24T23:32:34.959Z,73.71
2022-08-24T23:35:02.661Z,73.07
2022-08-24T23:37:30.360Z,73.63
2022-08-24T23:39:58.286Z,74.81
2022-08-24T23:42:25.723Z,74.91
2022-08-24T23:44:53.311Z,76.01
2022-08-24T23:47:21.322Z,73.81
2022-08-24T23:49:49.160Z,72.77
2022-08-24T23:52:26.177Z,72.18
2022-08-24T23:55:17.998Z,71.95
2022-08-24T23:57:44.656Z,71.96
